Time;durP1;ratioP1;P1;durP2;ratioP2;P2;SDS_P1;SDS_P2;PMS_P1;PMS_P2;Temp;Humidity;BMP_temperature;BMP_pressure;BME280_temperature;BME280_humidity;BME280_pressure;Samples;Min_cycle;Max_cycle;Signal;HPM_P1;HPM_P2
2022/10/29 00:00:14;;;;;;;19.45;8.18;;;;;;;;;;6289322;28;20099;-80
2022/10/29 00:03:15;;;;;;;23.27;9.13;;;;;;;;;;6298899;28;20182;-80
2022/10/29 00:06:17;;;;;;;18.30;9.02;;;;;;;;;;6300788;28;20050;-80
2022/10/29 00:09:19;;;;;;;19.20;8.75;;;;;;;;;;6303722;28;20062;-80
2022/10/29 00:12:21;;;;;;;19.67;8.20;;;;;;;;;;6302291;28;20078;-81
2022/10/29 00:15:22;;;;;;;16.63;7.05;;;;;;;;;;6300452;28;20051;-79
2022/10/29 00:18:24;;;;;;;19.92;7.93;;;;;;;;;;6305039;28;20082;-80
2022/10/29 00:21:26;;;;;;;17.45;7.80;;;;;;;;;;6297524;28;20539;-80
2022/10/29 00:24:28;;;;;;;18.73;8.30;;;;;;;;;;6281295;28;20510;-80
2022/10/29 00:27:30;;;;;;;15.13;7.10;;;;;;;;;;6297781;28;20074;-80
2022/10/29 00:30:34;;;;;;;21.90;7.75;;;;;;;;;;6303622;28;20458;-81
2022/10/29 00:33:35;;;;;;;15.63;7.68;;;;;;;;;;6295924;28;20147;-81
2022/10/29 00:36:38;;;;;;;19.70;7.88;;;;;;;;;;6298883;28;20580;-80
2022/10/29 00:39:39;;;;;;;26.27;9.20;;;;;;;;;;6287028;28;20048;-81
2022/10/29 00:42:41;;;;;;;23.77;9.48;;;;;;;;;;6299183;28;20052;-80
2022/10/29 00:46:03;;;;;;;20.98;10.23;;;;;;;;;;6301374;28;20048;-80
2022/10/29 00:49:06;;;;;;;20.25;9.93;;;;;;;;;;6299769;28;20279;-81
2022/10/29 00:52:09;;;;;;;20.25;9.27;;;;;;;;;;6305555;28;20059;-80
2022/10/29 00:55:14;;;;;;;20.65;8.82;;;;;;;;;;6297151;28;20048;-80
2022/10/29 00:58:16;;;;;;;18.42;9.73;;;;;;;;;;6303179;28;20131;-80
2022/10/29 01:01:18;;;;;;;24.05;9.63;;;;;;;;;;6313838;28;20039;-80
2022/10/29 01:04:21;;;;;;;17.13;8.27;;;;;;;;;;6308358;28;20511;-81
2022/10/29 01:07:23;;;;;;;20.53;8.03;;;;;;;;;;6301431;28;20047;-80
2022/10/29 01:10:45;;;;;;;25.40;9.40;;;;;;;;;;6298643;28;20168;-80
2022/10/29 01:13:53;;;;;;;17.67;7.93;;;;;;;;;;6300063;28;20048;-80
2022/10/29 01:17:08;;;;;;;22.95;8.43;;;;;;;;;;6299883;28;20492;-80
2022/10/29 01:20:45;;;;;;;21.85;7.43;;;;;;;;;;6310811;28;20051;-80
2022/10/29 01:24:17;;;;;;;25.08;9.30;;;;;;;;;;6303828;28;20063;-80
2022/10/29 01:27:19;;;;;;;20.15;7.72;;;;;;;;;;6308918;28;20340;-80
2022/10/29 01:30:51;;;;;;;17.48;7.80;;;;;;;;;;6289808;28;20050;-80
2022/10/29 01:34:21;;;;;;;27.65;9.00;;;;;;;;;;6303943;28;20054;-80
2022/10/29 01:38:00;;;;;;;25.70;10.13;;;;;;;;;;6300561;28;20044;-80
2022/10/29 01:41:13;;;;;;;15.07;8.05;;;;;;;;;;6303338;28;20048;-80
2022/10/29 01:44:39;;;;;;;29.95;8.80;;;;;;;;;;6294794;28;20101;-80
2022/10/29 01:47:46;;;;;;;21.58;9.43;;;;;;;;;;6293676;28;20044;-79
2022/10/29 01:50:53;;;;;;;21.33;8.57;;;;;;;;;;6299643;28;20493;-80
2022/10/29 01:53:57;;;;;;;18.08;8.25;;;;;;;;;;6303161;28;20475;-80
2022/10/29 01:56:59;;;;;;;18.20;7.65;;;;;;;;;;6300505;28;20134;-80
2022/10/29 02:00:11;;;;;;;20.30;7.17;;;;;;;;;;6287082;28;20043;-80
2022/10/29 02:03:28;;;;;;;21.80;8.38;;;;;;;;;;6294888;28;20493;-80
2022/10/29 02:06:46;;;;;;;17.35;8.55;;;;;;;;;;6289214;28;20028;-80
2022/10/29 02:10:02;;;;;;;20.08;8.20;;;;;;;;;;6297157;28;20044;-80
2022/10/29 02:13:03;;;;;;;21.20;9.38;;;;;;;;;;6298747;28;20044;-80
2022/10/29 02:16:07;;;;;;;19.45;8.43;;;;;;;;;;6303461;28;20055;-79
2022/10/29 02:19:08;;;;;;;30.02;8.60;;;;;;;;;;6300224;28;20044;-80
2022/10/29 02:22:10;;;;;;;25.15;8.13;;;;;;;;;;6281912;28;20127;-80
2022/10/29 02:25:12;;;;;;;41.55;9.10;;;;;;;;;;6301219;28;20117;-80
2022/10/29 02:28:13;;;;;;;54.72;10.07;;;;;;;;;;6299946;28;20051;-80
2022/10/29 02:31:15;;;;;;;25.83;8.98;;;;;;;;;;6268352;28;20048;-80
2022/10/29 02:34:17;;;;;;;39.70;10.15;;;;;;;;;;6283436;28;20044;-80
2022/10/29 02:37:18;;;;;;;39.78;9.70;;;;;;;;;;6292830;28;20133;-81
2022/10/29 02:40:20;;;;;;;26.42;9.70;;;;;;;;;;6279608;28;20040;-80
2022/10/29 02:43:22;;;;;;;36.42;9.60;;;;;;;;;;6289540;28;20555;-80
2022/10/29 02:46:24;;;;;;;36.22;10.07;;;;;;;;;;6282590;28;20044;-81
2022/10/29 02:49:25;;;;;;;39.50;8.93;;;;;;;;;;6283484;28;20075;-80
2022/10/29 02:52:27;;;;;;;33.55;9.90;;;;;;;;;;6283201;28;20134;-80
2022/10/29 02:55:29;;;;;;;30.52;9.65;;;;;;;;;;6272793;28;20951;-80
2022/10/29 02:58:31;;;;;;;31.27;8.90;;;;;;;;;;6298895;28;20055;-81
2022/10/29 03:01:32;;;;;;;29.63;10.23;;;;;;;;;;6281089;28;20047;-80
2022/10/29 03:04:34;;;;;;;61.53;9.93;;;;;;;;;;6300509;28;20498;-81
2022/10/29 03:07:37;;;;;;;32.45;8.50;;;;;;;;;;6301604;28;20112;-81
2022/10/29 03:10:39;;;;;;;27.70;8.82;;;;;;;;;;6296866;28;20752;-80
2022/10/29 03:13:41;;;;;;;24.45;8.68;;;;;;;;;;6286817;28;20509;-81
2022/10/29 03:16:42;;;;;;;19.15;8.63;;;;;;;;;;6299109;28;20052;-80
2022/10/29 03:19:44;;;;;;;24.17;8.10;;;;;;;;;;6284453;28;20396;-80
2022/10/29 03:22:46;;;;;;;22.17;8.07;;;;;;;;;;6299996;28;20044;-81
2022/10/29 03:25:52;;;;;;;15.80;7.47;;;;;;;;;;6303381;28;20077;-81
2022/10/29 03:28:56;;;;;;;23.33;7.88;;;;;;;;;;6296416;28;20052;-80
2022/10/29 03:31:59;;;;;;;27.60;8.43;;;;;;;;;;6306051;28;20044;-81
2022/10/29 03:35:01;;;;;;;23.13;8.83;;;;;;;;;;6299877;28;20067;-81
2022/10/29 03:38:03;;;;;;;20.50;8.55;;;;;;;;;;6302616;28;20051;-80
2022/10/29 03:41:09;;;;;;;19.33;8.33;;;;;;;;;;6300957;28;20044;-80
2022/10/29 03:44:13;;;;;;;24.60;8.38;;;;;;;;;;6273405;28;20052;-81
2022/10/29 03:47:15;;;;;;;21.98;8.73;;;;;;;;;;6292400;28;20048;-81
2022/10/29 03:50:18;;;;;;;27.55;8.38;;;;;;;;;;6294678;28;20052;-80
2022/10/29 03:53:20;;;;;;;16.85;8.38;;;;;;;;;;6289300;28;20516;-80
2022/10/29 03:56:21;;;;;;;18.33;7.65;;;;;;;;;;6292214;28;20055;-80
2022/10/29 03:59:23;;;;;;;20.00;7.97;;;;;;;;;;6268269;28;20052;-81
2022/10/29 04:02:25;;;;;;;24.40;8.55;;;;;;;;;;6272903;28;20070;-81
2022/10/29 04:05:27;;;;;;;23.00;7.93;;;;;;;;;;6283922;28;20126;-80
2022/10/29 04:08:28;;;;;;;19.75;8.48;;;;;;;;;;6295936;28;20040;-81
2022/10/29 04:11:30;;;;;;;20.40;8.38;;;;;;;;;;6292992;28;20051;-80
2022/10/29 04:14:32;;;;;;;21.35;8.57;;;;;;;;;;6293927;28;20039;-81
2022/10/29 04:17:34;;;;;;;15.88;7.60;;;;;;;;;;6296655;28;22125;-81
2022/10/29 04:20:36;;;;;;;23.27;8.32;;;;;;;;;;6286512;28;20044;-80
2022/10/29 04:23:58;;;;;;;26.30;7.60;;;;;;;;;;6279483;28;20779;-81
2022/10/29 04:27:20;;;;;;;34.78;9.90;;;;;;;;;;6290095;28;20052;-81
2022/10/29 04:30:41;;;;;;;28.10;8.30;;;;;;;;;;6290091;28;20044;-81
2022/10/29 04:33:44;;;;;;;34.35;8.82;;;;;;;;;;6296232;28;20135;-80
2022/10/29 04:36:45;;;;;;;42.97;8.35;;;;;;;;;;6290710;28;20052;-80
2022/10/29 04:39:47;;;;;;;30.67;8.95;;;;;;;;;;6281754;28;20048;-80
2022/10/29 04:42:49;;;;;;;22.60;7.80;;;;;;;;;;6291185;28;20044;-81
2022/10/29 04:45:56;;;;;;;22.20;7.68;;;;;;;;;;6294374;28;20051;-80
2022/10/29 04:48:58;;;;;;;22.58;8.73;;;;;;;;;;6294941;28;20059;-81
2022/10/29 04:52:00;;;;;;;18.48;7.70;;;;;;;;;;6294778;28;20043;-80
2022/10/29 04:55:01;;;;;;;22.80;8.00;;;;;;;;;;6296378;28;20132;-81
2022/10/29 04:58:10;;;;;;;22.88;7.47;;;;;;;;;;6297362;28;20044;-81
2022/10/29 05:01:12;;;;;;;30.70;8.35;;;;;;;;;;6293486;28;20312;-81
2022/10/29 05:04:14;;;;;;;28.30;7.60;;;;;;;;;;6293645;28;20069;-81
2022/10/29 05:07:15;;;;;;;18.33;7.80;;;;;;;;;;6283986;28;20055;-80
2022/10/29 05:10:17;;;;;;;14.32;6.65;;;;;;;;;;6281717;28;20068;-80
2022/10/29 05:13:19;;;;;;;12.55;6.40;;;;;;;;;;6274942;28;20044;-81
2022/10/29 05:16:21;;;;;;;14.85;7.68;;;;;;;;;;6292528;28;20870;-81
2022/10/29 05:19:22;;;;;;;17.27;8.27;;;;;;;;;;6293748;28;20047;-81
2022/10/29 05:22:24;;;;;;;20.60;8.43;;;;;;;;;;6276984;28;20044;-81
2022/10/29 05:25:27;;;;;;;22.63;8.27;;;;;;;;;;6298702;28;20138;-79
2022/10/29 05:28:28;;;;;;;19.85;8.18;;;;;;;;;;6278473;28;20519;-81
2022/10/29 05:31:30;;;;;;;18.63;8.07;;;;;;;;;;6291342;28;20046;-80
2022/10/29 05:34:32;;;;;;;17.55;7.43;;;;;;;;;;6295137;28;20123;-80
2022/10/29 05:37:33;;;;;;;14.77;7.53;;;;;;;;;;6300320;28;20043;-80
2022/10/29 05:40:35;;;;;;;18.20;7.60;;;;;;;;;;6275633;28;20071;-80
2022/10/29 05:43:37;;;;;;;19.58;7.53;;;;;;;;;;6294381;28;20056;-81
2022/10/29 05:46:38;;;;;;;21.90;7.75;;;;;;;;;;6295139;28;20048;-80
2022/10/29 05:49:40;;;;;;;21.33;8.10;;;;;;;;;;6297980;28;20041;-80
2022/10/29 05:52:42;;;;;;;14.63;7.30;;;;;;;;;;6293256;28;20050;-80
2022/10/29 05:55:43;;;;;;;16.65;6.72;;;;;;;;;;6298228;28;20055;-80
2022/10/29 05:58:49;;;;;;;15.95;7.07;;;;;;;;;;6298974;28;20044;-80
2022/10/29 06:01:50;;;;;;;15.52;7.20;;;;;;;;;;6283874;28;20115;-80
2022/10/29 06:04:52;;;;;;;16.25;8.05;;;;;;;;;;6294659;28;20040;-79
2022/10/29 06:07:57;;;;;;;17.42;7.15;;;;;;;;;;6297610;28;20111;-80
2022/10/29 06:11:01;;;;;;;21.85;7.47;;;;;;;;;;6280847;28;20108;-81
2022/10/29 06:14:03;;;;;;;13.93;6.85;;;;;;;;;;6282844;28;20415;-81
2022/10/29 06:17:04;;;;;;;18.42;7.07;;;;;;;;;;6298339;28;20051;-81
2022/10/29 06:20:07;;;;;;;15.50;7.50;;;;;;;;;;6294723;28;20048;-80
2022/10/29 06:23:09;;;;;;;14.35;7.10;;;;;;;;;;6300936;28;20042;-80
2022/10/29 06:26:11;;;;;;;13.68;6.80;;;;;;;;;;6301682;28;20040;-80
2022/10/29 06:29:13;;;;;;;16.95;7.55;;;;;;;;;;6286822;28;20044;-81
2022/10/29 06:32:14;;;;;;;16.10;6.57;;;;;;;;;;6294942;28;20040;-80
2022/10/29 06:35:16;;;;;;;15.00;7.68;;;;;;;;;;6288979;28;20036;-79
2022/10/29 06:38:17;;;;;;;12.90;7.35;;;;;;;;;;6295783;28;20055;-80
2022/10/29 06:41:23;;;;;;;21.10;11.48;;;;;;;;;;6294610;28;20036;-79
2022/10/29 06:44:25;;;;;;;14.75;8.45;;;;;;;;;;6291271;28;21230;-79
2022/10/29 06:47:27;;;;;;;15.93;7.13;;;;;;;;;;6296246;28;20113;-79
2022/10/29 06:50:29;;;;;;;14.13;7.93;;;;;;;;;;6300298;28;20048;-80
2022/10/29 06:53:30;;;;;;;13.13;7.07;;;;;;;;;;6287476;28;20070;-80
2022/10/29 06:56:33;;;;;;;14.10;7.55;;;;;;;;;;6301963;28;20044;-80
2022/10/29 06:59:35;;;;;;;13.30;6.85;;;;;;;;;;6275252;28;20172;-80
2022/10/29 07:02:36;;;;;;;13.88;6.75;;;;;;;;;;6288097;28;20093;-80
2022/10/29 07:05:38;;;;;;;12.88;6.93;;;;;;;;;;6294311;28;20040;-79
2022/10/29 07:08:39;;;;;;;13.07;6.75;;;;;;;;;;6276108;28;20032;-79
2022/10/29 07:11:41;;;;;;;11.35;6.30;;;;;;;;;;6296925;28;20036;-80
2022/10/29 07:14:43;;;;;;;12.05;6.40;;;;;;;;;;6298728;28;20484;-81
2022/10/29 07:18:04;;;;;;;16.10;6.88;;;;;;;;;;6300370;28;20036;-81
2022/10/29 07:21:06;;;;;;;13.77;7.32;;;;;;;;;;6298426;28;20646;-80
2022/10/29 07:24:08;;;;;;;14.60;6.60;;;;;;;;;;6297223;28;20051;-80
2022/10/29 07:27:09;;;;;;;13.45;6.85;;;;;;;;;;6291028;28;20060;-80
2022/10/29 07:30:11;;;;;;;14.13;7.75;;;;;;;;;;6278504;28;20153;-81
2022/10/29 07:33:13;;;;;;;18.90;7.20;;;;;;;;;;6290195;27;20044;-80
2022/10/29 07:36:16;;;;;;;15.70;7.05;;;;;;;;;;6292114;28;20051;-80
2022/10/29 07:39:18;;;;;;;19.77;7.93;;;;;;;;;;6294774;28;20048;-80
2022/10/29 07:42:20;;;;;;;16.58;8.05;;;;;;;;;;6290092;28;20052;-80
2022/10/29 07:45:22;;;;;;;17.08;8.88;;;;;;;;;;6291581;28;20184;-81
2022/10/29 07:48:23;;;;;;;18.70;8.93;;;;;;;;;;6277367;28;20043;-81
2022/10/29 07:51:25;;;;;;;16.50;9.00;;;;;;;;;;6292113;28;20043;-80
2022/10/29 07:54:26;;;;;;;18.00;8.98;;;;;;;;;;6285277;28;20070;-81
2022/10/29 07:57:29;;;;;;;15.95;8.95;;;;;;;;;;6279247;27;20043;-80
2022/10/29 08:00:33;;;;;;;14.80;8.18;;;;;;;;;;6292934;28;20044;-79
2022/10/29 08:03:35;;;;;;;15.55;6.97;;;;;;;;;;6290893;28;20040;-80
2022/10/29 08:06:37;;;;;;;16.17;7.20;;;;;;;;;;6292397;28;20516;-80
2022/10/29 08:09:39;;;;;;;13.00;6.57;;;;;;;;;;6297892;28;20044;-79
2022/10/29 08:12:57;;;;;;;17.00;8.03;;;;;;;;;;6275339;28;20497;-79
2022/10/29 08:16:00;;;;;;;15.05;6.85;;;;;;;;;;6291327;28;20474;-79
2022/10/29 08:19:01;;;;;;;12.63;6.82;;;;;;;;;;6275161;28;20044;-78
2022/10/29 08:22:03;;;;;;;19.77;7.28;;;;;;;;;;6294840;28;20427;-80
2022/10/29 08:25:05;;;;;;;14.90;6.82;;;;;;;;;;6288806;28;20040;-81
2022/10/29 08:28:13;;;;;;;19.50;7.90;;;;;;;;;;6290554;28;20060;-80
2022/10/29 08:31:15;;;;;;;14.48;7.22;;;;;;;;;;6275612;28;20036;-81
2022/10/29 08:34:16;;;;;;;17.13;6.82;;;;;;;;;;6290127;28;20526;-81
2022/10/29 08:37:18;;;;;;;13.30;7.00;;;;;;;;;;6293606;28;20048;-81
2022/10/29 08:40:27;;;;;;;12.02;6.90;;;;;;;;;;6275525;28;20063;-80
2022/10/29 08:44:18;;;;;;;12.88;7.78;;;;;;;;;;6283436;28;20576;-79
2022/10/29 08:47:22;;;;;;;15.20;7.20;;;;;;;;;;6210094;28;20058;-79
2022/10/29 08:50:32;;;;;;;17.35;7.00;;;;;;;;;;6293354;28;20083;-80
2022/10/29 08:53:40;;;;;;;14.85;6.70;;;;;;;;;;6290604;28;20058;-79
2022/10/29 08:56:47;;;;;;;13.82;7.10;;;;;;;;;;6280401;28;20039;-80
2022/10/29 09:00:18;;;;;;;15.88;7.05;;;;;;;;;;6281831;28;20062;-79
2022/10/29 09:03:20;;;;;;;17.80;7.47;;;;;;;;;;6269970;28;20171;-79
2022/10/29 09:06:38;;;;;;;22.08;8.80;;;;;;;;;;6294489;28;21317;-79
2022/10/29 09:09:52;;;;;;;15.13;7.63;;;;;;;;;;6281836;28;20048;-79
2022/10/29 09:13:27;;;;;;;13.73;7.30;;;;;;;;;;6296758;28;20060;-80
2022/10/29 09:16:49;;;;;;;16.90;6.63;;;;;;;;;;6290069;28;20054;-80
2022/10/29 09:19:50;;;;;;;14.32;7.03;;;;;;;;;;6294053;28;20055;-77
2022/10/29 09:23:11;;;;;;;15.00;7.88;;;;;;;;;;6279513;28;20052;-79
2022/10/29 09:26:23;;;;;;;19.88;7.47;;;;;;;;;;6299420;28;20040;-79
2022/10/29 09:29:33;;;;;;;15.82;8.50;;;;;;;;;;6274941;28;20052;-78
2022/10/29 09:32:58;;;;;;;12.70;7.22;;;;;;;;;;6297002;28;20036;-80
2022/10/29 09:36:01;;;;;;;12.93;7.20;;;;;;;;;;6296588;28;20052;-80
2022/10/29 09:39:11;;;;;;;13.73;6.73;;;;;;;;;;6296517;28;20522;-80
2022/10/29 09:42:21;;;;;;;14.10;8.30;;;;;;;;;;6296628;28;21683;-79
2022/10/29 09:45:44;;;;;;;14.43;8.27;;;;;;;;;;6295553;28;20054;-79
2022/10/29 09:49:18;;;;;;;23.33;9.63;;;;;;;;;;6285784;28;20044;-81
2022/10/29 09:52:22;;;;;;;17.00;8.40;;;;;;;;;;6294967;28;20048;-80
2022/10/29 09:55:34;;;;;;;19.17;9.10;;;;;;;;;;6279120;28;20063;-80
2022/10/29 09:58:40;;;;;;;18.35;8.25;;;;;;;;;;6300219;28;20127;-80
2022/10/29 10:01:42;;;;;;;17.88;8.38;;;;;;;;;;6296939;28;20085;-80
2022/10/29 10:04:48;;;;;;;16.35;7.95;;;;;;;;;;6292705;28;20052;-79
2022/10/29 10:08:12;;;;;;;14.48;7.88;;;;;;;;;;6295040;28;20044;-80
2022/10/29 10:11:18;;;;;;;13.35;7.70;;;;;;;;;;6280546;28;20156;-79
2022/10/29 10:14:22;;;;;;;14.25;6.63;;;;;;;;;;6299873;28;20538;-79
2022/10/29 10:17:24;;;;;;;15.98;7.97;;;;;;;;;;6300464;28;20044;-79
2022/10/29 10:20:40;;;;;;;17.63;7.75;;;;;;;;;;6295454;28;21647;-79
2022/10/29 10:23:47;;;;;;;14.27;7.20;;;;;;;;;;6272812;28;20055;-79
2022/10/29 10:26:49;;;;;;;14.82;7.40;;;;;;;;;;6282410;28;20044;-79
2022/10/29 10:30:03;;;;;;;13.75;7.03;;;;;;;;;;6293352;28;20094;-79
2022/10/29 10:33:22;;;;;;;14.75;6.47;;;;;;;;;;6296424;28;20130;-80
2022/10/29 10:36:26;;;;;;;15.77;6.95;;;;;;;;;;6289542;28;20048;-80
2022/10/29 10:39:38;;;;;;;15.55;7.40;;;;;;;;;;6299826;28;20108;-81
2022/10/29 10:42:45;;;;;;;16.33;6.95;;;;;;;;;;6297832;28;20450;-81
2022/10/29 10:45:57;;;;;;;11.52;6.85;;;;;;;;;;6281602;28;20118;-83
2022/10/29 10:49:01;;;;;;;15.82;6.78;;;;;;;;;;6296361;28;20044;-83
2022/10/29 10:52:15;;;;;;;13.23;6.95;;;;;;;;;;6297033;28;20048;-80
2022/10/29 10:55:30;;;;;;;15.38;7.30;;;;;;;;;;6277718;28;20456;-81
2022/10/29 10:58:43;;;;;;;15.90;6.72;;;;;;;;;;6293199;28;20148;-80
2022/10/29 11:01:49;;;;;;;14.45;6.50;;;;;;;;;;6286289;28;20130;-81
2022/10/29 11:04:58;;;;;;;15.35;6.80;;;;;;;;;;6289902;28;20069;-82
2022/10/29 11:08:19;;;;;;;17.23;6.63;;;;;;;;;;6290708;28;20048;-80
2022/10/29 11:12:00;;;;;;;14.18;7.13;;;;;;;;;;6294471;28;20147;-81
2022/10/29 11:15:21;;;;;;;17.08;6.70;;;;;;;;;;6253193;28;20050;-81
2022/10/29 11:18:35;;;;;;;15.02;6.20;;;;;;;;;;6285435;28;20145;-81
2022/10/29 11:21:46;;;;;;;14.63;6.57;;;;;;;;;;6269324;28;20091;-82
2022/10/29 11:25:12;;;;;;;13.65;6.60;;;;;;;;;;6289605;28;20390;-81
2022/10/29 11:28:30;;;;;;;11.13;6.45;;;;;;;;;;6292196;28;20052;-81
2022/10/29 11:31:47;;;;;;;14.75;6.40;;;;;;;;;;6288621;28;22153;-81
2022/10/29 11:35:03;;;;;;;13.30;6.00;;;;;;;;;;6288920;28;20048;-81
2022/10/29 11:38:13;;;;;;;11.02;6.13;;;;;;;;;;6292400;28;20047;-81
2022/10/29 11:41:37;;;;;;;10.55;5.57;;;;;;;;;;6298793;28;20052;-83
2022/10/29 11:44:45;;;;;;;14.43;6.22;;;;;;;;;;6260138;28;20282;-83
2022/10/29 11:48:07;;;;;;;16.38;6.30;;;;;;;;;;6286187;28;20146;-83
2022/10/29 11:51:27;;;;;;;14.05;5.95;;;;;;;;;;6285261;28;20059;-81
2022/10/29 11:54:58;;;;;;;15.80;6.35;;;;;;;;;;6283467;28;20059;-83
2022/10/29 11:58:39;;;;;;;12.52;6.25;;;;;;;;;;6285435;28;20421;-80
2022/10/29 12:01:46;;;;;;;15.13;6.35;;;;;;;;;;6284731;28;20063;-81
2022/10/29 12:05:14;;;;;;;12.25;6.10;;;;;;;;;;6252806;28;20051;-80
2022/10/29 12:08:40;;;;;;;18.52;6.03;;;;;;;;;;6267909;28;20047;-81
2022/10/29 12:12:19;;;;;;;14.07;6.57;;;;;;;;;;6266915;28;22150;-83
2022/10/29 12:15:36;;;;;;;11.20;5.60;;;;;;;;;;6275190;28;20129;-81
2022/10/29 12:19:09;;;;;;;14.10;6.35;;;;;;;;;;6268552;28;20032;-82
2022/10/29 12:22:47;;;;;;;14.40;6.30;;;;;;;;;;6268977;28;20037;-81
2022/10/29 12:26:17;;;;;;;13.00;6.50;;;;;;;;;;6271798;28;20127;-80
2022/10/29 12:29:42;;;;;;;14.20;6.40;;;;;;;;;;6293270;28;21341;-80
2022/10/29 12:33:03;;;;;;;14.52;6.53;;;;;;;;;;6279682;28;20095;-81
2022/10/29 12:36:23;;;;;;;11.57;5.88;;;;;;;;;;6294496;28;20036;-80
2022/10/29 12:39:33;;;;;;;19.88;6.85;;;;;;;;;;6291942;28;22017;-80
2022/10/29 12:42:35;;;;;;;15.32;7.68;;;;;;;;;;6282745;28;20048;-80
2022/10/29 12:45:49;;;;;;;15.15;6.60;;;;;;;;;;6289668;28;20134;-79
2022/10/29 12:49:21;;;;;;;11.05;5.60;;;;;;;;;;6293591;28;20048;-81
2022/10/29 12:52:49;;;;;;;15.07;6.50;;;;;;;;;;6280045;28;20051;-81
2022/10/29 12:55:51;;;;;;;13.40;5.82;;;;;;;;;;6271116;28;20047;-81
2022/10/29 12:59:16;;;;;;;13.30;6.37;;;;;;;;;;6260063;28;20056;-82
2022/10/29 13:02:28;;;;;;;13.82;5.43;;;;;;;;;;6283508;28;20044;-82
2022/10/29 13:05:38;;;;;;;13.02;6.05;;;;;;;;;;6292912;28;20047;-82
2022/10/29 13:08:53;;;;;;;12.57;5.97;;;;;;;;;;6297688;28;20058;-82
2022/10/29 13:12:08;;;;;;;14.32;6.65;;;;;;;;;;6292809;28;20141;-81
2022/10/29 13:15:14;;;;;;;12.38;6.10;;;;;;;;;;6255329;28;20147;-81
2022/10/29 13:18:43;;;;;;;15.07;5.60;;;;;;;;;;6280514;28;20064;-81
2022/10/29 13:21:58;;;;;;;14.45;6.43;;;;;;;;;;6272664;28;20770;-81
2022/10/29 13:25:39;;;;;;;14.52;6.13;;;;;;;;;;6283547;28;20078;-82
2022/10/29 13:28:46;;;;;;;9.80;5.18;;;;;;;;;;6285464;28;20048;-81
2022/10/29 13:31:48;;;;;;;13.40;7.30;;;;;;;;;;6292800;28;20050;-81
2022/10/29 13:34:51;;;;;;;13.35;7.32;;;;;;;;;;6278721;28;20572;-82
2022/10/29 13:37:54;;;;;;;10.80;6.47;;;;;;;;;;6258333;28;20052;-81
2022/10/29 13:41:24;;;;;;;14.18;5.90;;;;;;;;;;6296210;28;20200;-81
2022/10/29 13:44:27;;;;;;;13.02;5.50;;;;;;;;;;6292749;28;20052;-81
2022/10/29 13:47:30;;;;;;;13.25;6.18;;;;;;;;;;6284600;28;20041;-81
2022/10/29 13:50:34;;;;;;;13.25;5.88;;;;;;;;;;6301165;28;20040;-82
2022/10/29 13:54:01;;;;;;;13.07;5.88;;;;;;;;;;6295880;28;20533;-82
2022/10/29 13:57:17;;;;;;;12.80;5.88;;;;;;;;;;6289054;28;20046;-82
2022/10/29 14:00:20;;;;;;;16.08;7.32;;;;;;;;;;6300078;28;20040;-81
2022/10/29 14:03:38;;;;;;;13.35;8.35;;;;;;;;;;6305249;28;21453;-80
2022/10/29 14:06:41;;;;;;;16.05;7.10;;;;;;;;;;6279866;28;20188;-82
2022/10/29 14:09:47;;;;;;;12.10;5.80;;;;;;;;;;6296418;28;20044;-82
2022/10/29 14:12:54;;;;;;;15.90;6.32;;;;;;;;;;6296748;28;21066;-84
2022/10/29 14:16:01;;;;;;;15.38;6.57;;;;;;;;;;6297932;28;20056;-81
2022/10/29 14:19:19;;;;;;;11.18;6.40;;;;;;;;;;6293505;28;20164;-82
2022/10/29 14:22:36;;;;;;;16.63;7.55;;;;;;;;;;6276407;28;20121;-82
2022/10/29 14:25:38;;;;;;;14.43;7.18;;;;;;;;;;6279566;28;20111;-82
2022/10/29 14:28:40;;;;;;;15.80;7.40;;;;;;;;;;6280010;28;20416;-82
2022/10/29 14:31:41;;;;;;;18.27;7.10;;;;;;;;;;6278140;28;20420;-84
2022/10/29 14:34:46;;;;;;;12.15;6.35;;;;;;;;;;6272425;28;20464;-81
2022/10/29 14:37:49;;;;;;;10.30;6.38;;;;;;;;;;6295389;28;20096;-80
2022/10/29 14:40:51;;;;;;;14.32;6.70;;;;;;;;;;6296379;28;20467;-80
2022/10/29 14:44:20;;;;;;;14.77;7.40;;;;;;;;;;6302969;28;20032;-80
2022/10/29 14:47:35;;;;;;;11.63;6.45;;;;;;;;;;6283404;28;20412;-80
2022/10/29 14:50:45;;;;;;;14.27;7.22;;;;;;;;;;6291225;28;20496;-81
2022/10/29 14:53:54;;;;;;;16.90;7.53;;;;;;;;;;6293129;28;20051;-82
2022/10/29 14:56:59;;;;;;;16.38;6.53;;;;;;;;;;6289773;28;20174;-81
2022/10/29 15:00:04;;;;;;;15.00;7.07;;;;;;;;;;6297255;28;20056;-80
2022/10/29 15:03:06;;;;;;;17.85;8.13;;;;;;;;;;6275109;28;20143;-81
2022/10/29 15:06:20;;;;;;;21.15;9.15;;;;;;;;;;6300740;28;20049;-80
2022/10/29 15:09:26;;;;;;;;;;;;;;;;;;6295005;28;20056;-81
2022/10/29 15:12:35;;;;;;;18.52;7.18;;;;;;;;;;6301661;28;19927;-82
2022/10/29 15:15:37;;;;;;;16.20;8.95;;;;;;;;;;6291501;28;20071;-81
2022/10/29 15:18:38;;;;;;;14.18;8.43;;;;;;;;;;6296363;28;20036;-82
2022/10/29 15:21:40;;;;;;;16.98;9.98;;;;;;;;;;6282864;28;20063;-80
2022/10/29 15:24:45;;;;;;;21.40;9.80;;;;;;;;;;6291286;28;20048;-80
2022/10/29 15:27:47;;;;;;;15.57;7.82;;;;;;;;;;6301332;28;20105;-81
2022/10/29 15:30:49;;;;;;;12.90;7.63;;;;;;;;;;6303585;28;20121;-81
2022/10/29 15:33:52;;;;;;;17.60;10.35;;;;;;;;;;6296775;28;20587;-80
2022/10/29 15:36:58;;;;;;;28.52;15.00;;;;;;;;;;6303883;28;20036;-79
2022/10/29 15:40:05;;;;;;;27.65;13.30;;;;;;;;;;6295562;28;20102;-80
2022/10/29 15:43:28;;;;;;;22.58;13.05;;;;;;;;;;6277183;28;20064;-79
2022/10/29 15:46:42;;;;;;;21.15;11.73;;;;;;;;;;6297298;28;20059;-80
2022/10/29 15:49:43;;;;;;;22.05;11.38;;;;;;;;;;6299158;28;20050;-80
2022/10/29 15:52:56;;;;;;;27.98;13.10;;;;;;;;;;6277146;28;20115;-81
2022/10/29 15:55:57;;;;;;;34.90;18.48;;;;;;;;;;6272018;28;20108;-81
2022/10/29 15:58:59;;;;;;;32.17;15.85;;;;;;;;;;6283824;28;20043;-82
2022/10/29 16:02:02;;;;;;;23.10;12.18;;;;;;;;;;6289016;28;20480;-82
2022/10/29 16:05:04;;;;;;;17.65;8.70;;;;;;;;;;6296535;28;20240;-81
2022/10/29 16:08:12;;;;;;;17.97;9.97;;;;;;;;;;6280370;28;20048;-82
2022/10/29 16:11:18;;;;;;;21.67;12.18;;;;;;;;;;6273742;28;20221;-80
2022/10/29 16:14:20;;;;;;;21.33;10.27;;;;;;;;;;6296941;28;20044;-81
2022/10/29 16:17:22;;;;;;;25.75;17.50;;;;;;;;;;6282255;28;20076;-82
2022/10/29 16:20:23;;;;;;;24.58;12.18;;;;;;;;;;6279348;28;20075;-80
2022/10/29 16:23:25;;;;;;;36.28;21.17;;;;;;;;;;6303307;28;20059;-81
2022/10/29 16:26:27;;;;;;;24.92;13.80;;;;;;;;;;6292346;28;20132;-81
2022/10/29 16:29:29;;;;;;;38.15;21.80;;;;;;;;;;6298103;28;20052;-80
2022/10/29 16:32:30;;;;;;;36.40;19.80;;;;;;;;;;6276780;28;20044;-81
2022/10/29 16:35:32;;;;;;;30.70;17.08;;;;;;;;;;6278232;28;20041;-81
2022/10/29 16:38:34;;;;;;;47.20;23.35;;;;;;;;;;6299649;28;20062;-79
2022/10/29 16:41:36;;;;;;;21.08;12.40;;;;;;;;;;6298341;28;20044;-81
2022/10/29 16:44:40;;;;;;;30.60;19.80;;;;;;;;;;6279643;28;20051;-81
2022/10/29 16:47:41;;;;;;;22.20;11.88;;;;;;;;;;6300141;28;20052;-80
2022/10/29 16:50:43;;;;;;;22.80;13.00;;;;;;;;;;6280877;28;20044;-81
2022/10/29 16:53:45;;;;;;;31.05;16.23;;;;;;;;;;6276921;28;20052;-80
2022/10/29 16:56:49;;;;;;;51.08;28.45;;;;;;;;;;6269122;28;20059;-80
2022/10/29 16:59:51;;;;;;;57.72;38.25;;;;;;;;;;6290653;28;20044;-80
2022/10/29 17:02:52;;;;;;;184.45;118.90;;;;;;;;;;6282998;28;20063;-81
2022/10/29 17:05:54;;;;;;;99.50;60.67;;;;;;;;;;6268208;28;20067;-81
2022/10/29 17:08:56;;;;;;;39.33;21.55;;;;;;;;;;6282918;28;20047;-81
2022/10/29 17:11:58;;;;;;;69.55;41.83;;;;;;;;;;6276230;28;20111;-81
2022/10/29 17:14:59;;;;;;;42.58;25.05;;;;;;;;;;6291579;28;20056;-81
2022/10/29 17:18:01;;;;;;;32.30;15.60;;;;;;;;;;6258455;28;20052;-81
2022/10/29 17:21:03;;;;;;;21.30;13.20;;;;;;;;;;6287258;28;20036;-81
2022/10/29 17:24:05;;;;;;;29.50;14.93;;;;;;;;;;6282926;28;20469;-81
2022/10/29 17:27:10;;;;;;;60.38;31.00;;;;;;;;;;6280207;28;20059;-80
2022/10/29 17:30:11;;;;;;;;;;;;;;;;;;6288165;28;20079;-80
2022/10/29 17:33:15;;;;;;;19.27;10.43;;;;;;;;;;6291483;28;20064;-81
2022/10/29 17:36:17;;;;;;;19.67;9.77;;;;;;;;;;6291733;28;20060;-81
2022/10/29 17:39:20;;;;;;;14.77;9.93;;;;;;;;;;6290044;28;20048;-80
2022/10/29 17:42:21;;;;;;;18.77;9.07;;;;;;;;;;6273321;28;20468;-82
2022/10/29 17:45:23;;;;;;;23.67;15.00;;;;;;;;;;6291644;28;20123;-82
2022/10/29 17:48:25;;;;;;;44.33;28.00;;;;;;;;;;6292523;28;20051;-81
2022/10/29 17:51:27;;;;;;;54.35;31.88;;;;;;;;;;6289273;28;20040;-80
2022/10/29 17:54:29;;;;;;;35.80;20.67;;;;;;;;;;6291060;28;20059;-80
2022/10/29 17:57:30;;;;;;;29.58;16.35;;;;;;;;;;6296853;28;20100;-81
2022/10/29 18:00:32;;;;;;;26.67;15.52;;;;;;;;;;6285401;28;20491;-81
2022/10/29 18:03:35;;;;;;;34.53;19.88;;;;;;;;;;6300801;28;20047;-79
2022/10/29 18:06:36;;;;;;;31.48;18.30;;;;;;;;;;6281621;28;20051;-80
2022/10/29 18:09:38;;;;;;;24.60;14.68;;;;;;;;;;6299711;28;20048;-80
2022/10/29 18:12:40;;;;;;;21.40;11.35;;;;;;;;;;6301339;28;20051;-79
2022/10/29 18:15:41;;;;;;;18.88;11.25;;;;;;;;;;6283783;28;20376;-81
2022/10/29 18:18:44;;;;;;;20.77;11.20;;;;;;;;;;6298551;28;20040;-81
2022/10/29 18:22:02;;;;;;;21.25;12.40;;;;;;;;;;6297196;28;20049;-81
2022/10/29 18:25:04;;;;;;;24.23;12.90;;;;;;;;;;6284270;28;20036;-79